Time;durP1;ratioP1;P1;durP2;ratioP2;P2;SDS_P1;SDS_P2;PMS_P1;PMS_P2;Temp;Humidity;BMP_temperature;BMP_pressure;BME280_temperature;BME280_humidity;BME280_pressure;Samples;Min_cycle;Max_cycle;Signal;HPM_P1;HPM_P2
2022/07/09 00:00:31;;;;;;;18.23;14.25;;;;;;;17.52;78.86;102931.06;5060360;28;20037;-75
2022/07/09 00:02:56;;;;;;;16.25;14.20;;;;;;;17.52;79.00;102931.06;5060110;28;20040;-75
2022/07/09 00:05:22;;;;;;;16.70;13.75;;;;;;;17.50;79.09;102931.13;5059669;28;20040;-75
2022/07/09 00:07:47;;;;;;;17.02;14.32;;;;;;;17.49;79.13;102928.53;5044230;28;20062;-75
2022/07/09 00:10:13;;;;;;;22.00;14.23;;;;;;;17.48;78.99;102929.44;5060889;28;20264;-75
2022/07/09 00:12:38;;;;;;;20.30;14.52;;;;;;;17.46;79.15;102924.19;5029307;28;20080;-75
2022/07/09 00:15:04;;;;;;;18.40;15.15;;;;;;;17.46;79.08;102926.84;5058452;28;20041;-75
2022/07/09 00:17:32;;;;;;;17.13;14.68;;;;;;;17.43;79.18;102922.53;5059765;28;20275;-75
2022/07/09 00:19:58;;;;;;;18.17;13.82;;;;;;;17.42;79.14;102918.16;5059755;28;20255;-75
2022/07/09 00:22:23;;;;;;;18.63;14.27;;;;;;;17.41;78.89;102923.53;5072445;28;20063;-75
2022/07/09 00:24:48;;;;;;;20.65;14.02;;;;;;;17.41;78.72;102926.19;5083167;28;20060;-76
2022/07/09 00:27:14;;;;;;;20.63;14.95;;;;;;;17.41;78.77;102928.84;5065723;28;20248;-74
2022/07/09 00:29:40;;;;;;;22.08;15.18;;;;;;;17.39;78.83;102918.28;5065334;28;20043;-76
2022/07/09 00:32:05;;;;;;;22.65;15.65;;;;;;;17.38;78.79;102913.91;5065295;28;20024;-76
2022/07/09 00:34:31;;;;;;;22.05;15.57;;;;;;;17.38;78.66;102913.03;5065571;28;20039;-76
2022/07/09 00:36:56;;;;;;;20.30;15.52;;;;;;;17.38;78.90;102913.03;5048689;28;20039;-76
2022/07/09 00:39:22;;;;;;;21.17;16.42;;;;;;;17.36;78.79;102915.75;5065432;28;20039;-76
2022/07/09 00:41:47;;;;;;;19.33;14.43;;;;;;;17.36;79.02;102910.44;5065087;28;20051;-76
2022/07/09 00:44:13;;;;;;;21.95;16.40;;;;;;;17.35;79.12;102905.19;5064367;28;20053;-76
2022/07/09 00:46:38;;;;;;;21.13;16.02;;;;;;;17.35;79.00;102907.84;5065066;28;20029;-76
2022/07/09 00:49:05;;;;;;;20.83;16.13;;;;;;;17.34;79.08;102901.69;5046871;28;20025;-76
2022/07/09 00:51:31;;;;;;;20.45;15.98;;;;;;;17.35;79.23;102906.06;5063021;28;20029;-76
2022/07/09 00:53:58;;;;;;;25.30;17.55;;;;;;;17.33;79.25;102909.69;5068740;28;20062;-76
2022/07/09 00:56:24;;;;;;;26.35;17.73;;;;;;;17.33;79.32;102917.63;5081547;28;20036;-76
2022/07/09 00:58:50;;;;;;;26.17;17.88;;;;;;;17.32;79.42;102914.13;5082372;28;20040;-76
2022/07/09 01:01:15;;;;;;;25.30;18.23;;;;;;;17.31;79.29;102906.25;5082358;28;20347;-76
2022/07/09 01:03:41;;;;;;;24.27;18.13;;;;;;;17.30;79.24;102908.03;5075482;28;20028;-76
2022/07/09 01:06:07;;;;;;;24.27;17.35;;;;;;;17.31;79.36;102914.19;5064107;28;20320;-76
2022/07/09 01:08:34;;;;;;;26.02;18.73;;;;;;;17.29;79.70;102902.78;5082155;28;20044;-76
2022/07/09 01:11:00;;;;;;;22.25;16.10;;;;;;;17.28;79.35;102896.59;5064407;28;20106;-76
2022/07/09 01:13:26;;;;;;;23.35;18.10;;;;;;;17.27;78.92;102897.53;5058357;28;20041;-76
2022/07/09 01:15:52;;;;;;;26.50;18.23;;;;;;;17.27;79.12;102903.69;5044352;28;20044;-76
2022/07/09 01:18:18;;;;;;;25.60;18.23;;;;;;;17.26;79.09;102896.69;5042945;28;20441;-76
2022/07/09 01:20:43;;;;;;;26.40;17.55;;;;;;;17.26;79.42;102891.38;5056419;28;20036;-76
2022/07/09 01:23:09;;;;;;;20.70;17.40;;;;;;;17.26;79.26;102890.50;5049834;28;20252;-76
2022/07/09 01:25:43;;;;;;;22.73;17.70;;;;;;;17.26;79.19;102893.16;5024928;28;20045;-76
2022/07/09 01:28:09;;;;;;;19.02;15.88;;;;;;;17.23;79.35;102886.19;5037705;28;20048;-76
2022/07/09 01:30:36;;;;;;;20.65;16.35;;;;;;;17.23;78.92;102890.63;5043592;28;20037;-76
2022/07/09 01:33:02;;;;;;;18.02;14.30;;;;;;;17.22;78.77;102889.75;5043270;28;20029;-76
2022/07/09 01:35:28;;;;;;;20.27;14.32;;;;;;;17.21;78.91;102885.41;5062070;28;20041;-76
2022/07/09 01:37:54;;;;;;;20.08;15.20;;;;;;;17.22;78.91;102878.31;5043621;28;20086;-76
2022/07/09 01:40:20;;;;;;;17.75;15.13;;;;;;;17.22;79.27;102875.66;5062587;28;20051;-76
2022/07/09 01:42:47;;;;;;;17.85;13.95;;;;;;;17.22;79.39;102870.34;5043491;28;20390;-76
2022/07/09 01:45:13;;;;;;;21.55;14.25;;;;;;;17.22;79.86;102880.94;5043285;28;20045;-76
2022/07/09 01:47:38;;;;;;;14.95;13.30;;;;;;;17.21;79.53;102873.94;5061623;28;20429;-75
2022/07/09 01:50:04;;;;;;;13.88;12.35;;;;;;;17.20;79.53;102867.75;5027314;28;20204;-76
2022/07/09 01:52:30;;;;;;;15.18;13.50;;;;;;;17.21;79.31;102868.66;5060813;28;20039;-76
2022/07/09 01:54:56;;;;;;;18.52;13.57;;;;;;;17.20;79.70;102865.13;5042026;28;20194;-76
2022/07/09 01:57:21;;;;;;;18.15;13.43;;;;;;;17.19;79.92;102860.75;5043171;28;20037;-76
2022/07/09 01:59:46;;;;;;;16.38;13.18;;;;;;;17.19;80.15;102867.81;5057862;28;20033;-75
2022/07/09 02:02:12;;;;;;;16.88;12.57;;;;;;;17.17;79.65;102861.72;5032167;28;20087;-76
2022/07/09 02:04:38;;;;;;;18.17;13.25;;;;;;;17.18;79.79;102860.81;5026969;28;20413;-75
2022/07/09 02:07:04;;;;;;;20.55;13.27;;;;;;;17.16;80.03;102852.06;5023739;28;20245;-76
2022/07/09 02:09:29;;;;;;;15.23;13.00;;;;;;;17.16;79.97;102852.06;5042649;28;20100;-76
2022/07/09 02:11:55;;;;;;;15.95;12.85;;;;;;;17.15;80.26;102852.97;5055129;28;20040;-75
2022/07/09 02:14:21;;;;;;;15.98;12.30;;;;;;;17.14;80.13;102853.91;5083769;28;20058;-75
2022/07/09 02:16:46;;;;;;;13.55;11.48;;;;;;;17.12;80.08;102845.13;5084295;28;20036;-75
2022/07/09 02:19:13;;;;;;;12.48;11.05;;;;;;;17.10;79.47;102842.56;5083476;28;20036;-76
2022/07/09 02:21:39;;;;;;;12.95;11.45;;;;;;;17.11;79.81;102844.28;5100775;28;20095;-75
2022/07/09 02:24:04;;;;;;;12.63;11.10;;;;;;;17.10;79.92;102847.84;5101445;28;20047;-76
2022/07/09 02:26:30;;;;;;;13.02;11.55;;;;;;;17.08;80.17;102845.25;5082999;28;20116;-75
2022/07/09 02:28:55;;;;;;;14.55;11.30;;;;;;;17.06;80.61;102841.81;5097141;28;20028;-76
2022/07/09 02:31:21;;;;;;;12.45;11.05;;;;;;;17.05;80.44;102847.16;5063466;28;20397;-76
2022/07/09 02:33:47;;;;;;;14.43;11.25;;;;;;;17.03;80.43;102844.56;5090068;28;20071;-76
2022/07/09 02:36:13;;;;;;;12.15;10.85;;;;;;;17.02;80.47;102853.41;5067629;28;20031;-75
2022/07/09 02:38:38;;;;;;;12.25;10.40;;;;;;;17.00;80.68;102852.59;5101045;28;20099;-76
2022/07/09 02:41:04;;;;;;;15.45;10.68;;;;;;;16.99;80.43;102845.59;5096055;28;20028;-75
2022/07/09 02:43:29;;;;;;;15.27;10.15;;;;;;;16.99;80.47;102847.34;5099851;28;20039;-75
2022/07/09 02:45:55;;;;;;;12.02;9.32;;;;;;;16.98;80.63;102845.66;5066931;28;20264;-75
2022/07/09 02:48:27;;;;;;;10.98;9.70;;;;;;;16.97;80.79;102842.16;5058248;28;20032;-76
2022/07/09 02:50:53;;;;;;;10.13;9.10;;;;;;;16.96;80.56;102839.56;5062202;28;20028;-75
2022/07/09 02:53:19;;;;;;;10.02;9.02;;;;;;;16.95;80.74;102836.00;5068303;28;20537;-75
2022/07/09 02:55:44;;;;;;;9.55;8.75;;;;;;;16.95;80.99;102841.31;5073911;28;20028;-75
2022/07/09 02:58:11;;;;;;;10.85;9.48;;;;;;;16.95;80.70;102845.75;5077829;28;20093;-78
2022/07/09 03:00:39;;;;;;;9.45;8.50;;;;;;;16.95;80.86;102838.66;5084855;28;20044;-78
2022/07/09 03:03:04;;;;;;;12.27;8.93;;;;;;;16.94;80.72;102834.31;5076643;28;20046;-78
2022/07/09 03:05:30;;;;;;;10.18;9.18;;;;;;;16.93;80.94;102829.91;5077321;28;20233;-78
2022/07/09 03:07:55;;;;;;;10.93;9.35;;;;;;;16.93;81.00;102829.91;5047914;28;20036;-77
2022/07/09 03:10:21;;;;;;;9.32;8.43;;;;;;;16.92;81.13;102825.56;5097675;28;20259;-78
2022/07/09 03:12:46;;;;;;;9.50;8.60;;;;;;;16.92;81.31;102822.91;5065907;28;20243;-78
2022/07/09 03:15:14;;;;;;;9.23;8.45;;;;;;;16.93;81.41;102827.28;5073940;28;20031;-78
2022/07/09 03:17:40;;;;;;;10.05;9.05;;;;;;;16.92;81.28;102817.63;5097081;28;20070;-78
2022/07/09 03:20:05;;;;;;;11.60;8.57;;;;;;;16.92;81.34;102814.97;5062085;28;20046;-78
2022/07/09 03:22:31;;;;;;;9.40;8.48;;;;;;;16.93;81.43;102814.03;5078732;28;20038;-78
2022/07/09 03:24:56;;;;;;;10.48;9.40;;;;;;;16.93;81.50;102813.19;5078080;28;20039;-78
2022/07/09 03:27:22;;;;;;;11.38;8.45;;;;;;;16.93;81.65;102807.88;5075448;28;20393;-78
2022/07/09 03:29:47;;;;;;;9.48;8.57;;;;;;;16.93;81.41;102811.38;5081197;28;20036;-77
2022/07/09 03:32:13;;;;;;;9.45;8.55;;;;;;;16.93;81.42;102802.59;5076004;28;20204;-78
2022/07/09 03:34:38;;;;;;;9.65;8.68;;;;;;;16.94;81.56;102806.97;5032403;28;20036;-78
2022/07/09 03:37:03;;;;;;;9.05;8.18;;;;;;;16.93;81.54;102808.75;5095413;28;20032;-78
2022/07/09 03:39:29;;;;;;;10.07;8.30;;;;;;;16.93;81.56;102799.94;5095804;28;20062;-78
2022/07/09 03:41:54;;;;;;;11.52;8.45;;;;;;;16.94;82.00;102812.28;5090348;28;20016;-78
2022/07/09 03:44:20;;;;;;;8.70;7.90;;;;;;;16.94;82.01;102809.63;5061743;28;20031;-78
2022/07/09 03:46:45;;;;;;;11.50;8.07;;;;;;;16.94;81.96;102802.53;5061582;28;20362;-78
2022/07/09 03:49:10;;;;;;;8.68;7.90;;;;;;;16.94;82.11;102812.28;5077021;28;20051;-78
2022/07/09 03:51:36;;;;;;;10.50;8.50;;;;;;;16.93;82.19;102808.75;5078815;28;20044;-77
2022/07/09 03:54:02;;;;;;;9.32;8.43;;;;;;;16.94;82.34;102805.19;5095279;28;20244;-78
2022/07/09 03:56:27;;;;;;;9.80;8.90;;;;;;;16.95;82.19;102811.34;5061597;28;20099;-79
2022/07/09 03:58:53;;;;;;;8.82;8.02;;;;;;;16.94;82.25;102815.78;5052353;28;20062;-78
2022/07/09 04:01:18;;;;;;;8.60;7.90;;;;;;;16.95;82.29;102812.19;5081884;28;20036;-78
2022/07/09 04:03:44;;;;;;;12.40;8.45;;;;;;;16.95;82.53;102803.41;5043447;28;20044;-78
2022/07/09 04:06:10;;;;;;;10.52;8.52;;;;;;;16.95;82.55;102812.19;5077322;28;20044;-78
2022/07/09 04:08:35;;;;;;;9.02;8.18;;;;;;;16.94;82.60;102807.84;5078696;28;20239;-78
2022/07/09 04:11:01;;;;;;;9.50;8.65;;;;;;;16.95;82.38;102798.97;5097174;28;20043;-78
2022/07/09 04:13:26;;;;;;;9.07;8.23;;;;;;;16.96;82.52;102797.22;5097375;28;20066;-78
2022/07/09 04:15:52;;;;;;;9.18;8.25;;;;;;;16.96;82.54;102795.41;5097089;28;20036;-78
2022/07/09 04:18:17;;;;;;;9.07;8.27;;;;;;;16.97;82.50;102798.91;5059802;28;20055;-78
2022/07/09 04:20:43;;;;;;;9.10;8.20;;;;;;;16.96;83.00;102786.63;5096201;28;20032;-78
2022/07/09 04:23:09;;;;;;;9.48;8.40;;;;;;;16.97;83.04;102790.97;5079517;28;20300;-78
2022/07/09 04:25:34;;;;;;;12.10;8.85;;;;;;;16.98;83.64;102800.66;5078870;28;20246;-78
2022/07/09 04:28:00;;;;;;;11.02;9.70;;;;;;;16.98;83.66;102805.94;5077120;28;20039;-78
2022/07/09 04:30:27;;;;;;;10.73;9.30;;;;;;;16.97;84.00;102807.75;5085096;28;20039;-78
2022/07/09 04:32:52;;;;;;;11.10;8.98;;;;;;;16.99;84.02;102802.38;5097206;28;20081;-77
2022/07/09 04:35:18;;;;;;;10.15;9.07;;;;;;;16.98;83.90;102813.88;5076402;28;20277;-78
2022/07/09 04:37:43;;;;;;;12.15;9.25;;;;;;;16.99;83.75;102810.31;5078864;28;20103;-78
2022/07/09 04:40:09;;;;;;;10.77;9.07;;;;;;;16.99;83.71;102807.66;5078145;28;20044;-78
2022/07/09 04:42:34;;;;;;;9.27;8.48;;;;;;;16.98;82.93;102804.16;5097526;28;20247;-78
2022/07/09 04:45:00;;;;;;;10.07;8.57;;;;;;;17.00;83.01;102812.03;5079097;28;20273;-78
2022/07/09 04:47:25;;;;;;;11.32;8.52;;;;;;;17.00;82.81;102806.75;5092819;28;20285;-78
2022/07/09 04:49:51;;;;;;;9.25;8.43;;;;;;;17.00;82.76;102810.25;5080439;28;20039;-78
2022/07/09 04:52:19;;;;;;;10.48;9.48;;;;;;;17.01;82.83;102801.41;5078623;28;20107;-78
2022/07/09 04:54:45;;;;;;;13.88;9.30;;;;;;;17.01;83.14;102804.06;5078937;28;20035;-78
2022/07/09 04:57:10;;;;;;;9.38;8.52;;;;;;;17.01;83.18;102804.06;5078256;28;20038;-78
2022/07/09 04:59:36;;;;;;;7.60;6.97;;;;;;;17.02;82.66;102807.56;5078653;28;20040;-78
2022/07/09 05:02:01;;;;;;;8.98;8.10;;;;;;;17.00;82.16;102799.66;5065545;28;20031;-77
2022/07/09 05:04:27;;;;;;;8.20;7.20;;;;;;;17.01;81.40;102788.16;5069962;28;20119;-78
2022/07/09 05:06:52;;;;;;;8.63;7.82;;;;;;;17.01;81.08;102789.97;5078156;28;20117;-77
2022/07/09 05:09:17;;;;;;;7.45;6.80;;;;;;;17.01;80.55;102789.97;5096469;28;20094;-77
2022/07/09 05:11:43;;;;;;;7.50;6.82;;;;;;;17.02;80.30;102786.38;5096638;28;20273;-78
2022/07/09 05:14:08;;;;;;;7.35;6.65;;;;;;;17.03;80.28;102788.13;5078424;28;20277;-78
2022/07/09 05:16:34;;;;;;;7.95;7.18;;;;;;;17.03;80.42;102782.81;5061729;28;20372;-78
2022/07/09 05:18:59;;;;;;;10.75;6.70;;;;;;;17.04;80.90;102774.81;5076922;28;20035;-78
2022/07/09 05:21:25;;;;;;;6.60;6.10;;;;;;;17.03;80.35;102770.44;5096531;28;20067;-78
2022/07/09 05:23:50;;;;;;;9.05;6.32;;;;;;;17.05;80.59;102773.91;5096294;28;20321;-78
2022/07/09 05:26:16;;;;;;;7.20;6.60;;;;;;;17.05;80.65;102780.97;5080112;28;20037;-77
2022/07/09 05:28:41;;;;;;;6.50;6.00;;;;;;;17.06;80.65;102780.03;5071568;28;20369;-78
2022/07/09 05:31:07;;;;;;;7.47;6.78;;;;;;;17.05;80.59;102779.19;5095994;28;20119;-78
2022/07/09 05:33:32;;;;;;;6.50;6.03;;;;;;;17.06;80.66;102778.28;5093291;28;20055;-78
2022/07/09 05:35:58;;;;;;;6.95;6.35;;;;;;;17.08;80.45;102781.72;5061230;28;20039;-78
2022/07/09 05:38:23;;;;;;;6.13;5.50;;;;;;;17.07;80.38;102779.13;5078165;28;20043;-78
2022/07/09 05:40:50;;;;;;;7.57;6.88;;;;;;;17.07;80.34;102776.50;5096646;28;20044;-77
2022/07/09 05:43:16;;;;;;;5.97;5.47;;;;;;;17.08;79.79;102780.84;5078354;28;20044;-78
2022/07/09 05:45:41;;;;;;;6.78;6.07;;;;;;;17.10;79.20;102786.09;5096031;28;20425;-77
2022/07/09 05:48:07;;;;;;;6.30;5.80;;;;;;;17.07;79.07;102793.22;5057319;28;20035;-78
2022/07/09 05:50:32;;;;;;;6.50;6.00;;;;;;;17.09;79.14;102795.81;5054439;28;20040;-78
2022/07/09 05:52:57;;;;;;;7.25;6.55;;;;;;;17.10;78.69;102796.69;5073783;28;20036;-78
2022/07/09 05:55:23;;;;;;;7.93;7.22;;;;;;;17.11;78.68;102788.69;5070443;28;20036;-78
2022/07/09 05:57:48;;;;;;;6.68;6.18;;;;;;;17.12;78.50;102797.47;5074549;28;20040;-78
2022/07/09 06:00:14;;;;;;;7.72;6.97;;;;;;;17.13;78.83;102793.91;5064661;28;20044;-77
2022/07/09 06:02:39;;;;;;;9.48;8.60;;;;;;;17.14;79.19;102800.97;5094030;28;20039;-78
2022/07/09 06:05:05;;;;;;;9.07;8.10;;;;;;;17.14;79.23;102796.53;5094346;28;20343;-77
2022/07/09 06:07:30;;;;;;;9.57;8.45;;;;;;;17.15;80.39;102790.28;5071890;28;20063;-78
2022/07/09 06:09:56;;;;;;;11.63;8.73;;;;;;;17.19;80.59;102802.50;5077458;28;20197;-78
2022/07/09 06:12:21;;;;;;;8.77;7.97;;;;;;;17.20;80.58;102798.06;5097703;28;20150;-78
2022/07/09 06:14:46;;;;;;;11.00;9.82;;;;;;;17.21;80.54;102803.31;5095111;28;20060;-77
2022/07/09 06:17:12;;;;;;;8.82;8.02;;;;;;;17.23;79.94;102801.47;5076502;28;20085;-78
2022/07/09 06:19:38;;;;;;;10.02;7.97;;;;;;;17.23;79.50;102803.25;5094547;28;20036;-78
2022/07/09 06:22:03;;;;;;;10.80;9.75;;;;;;;17.25;80.09;102793.47;5084511;28;20043;-78
2022/07/09 06:24:32;;;;;;;10.68;9.00;;;;;;;17.29;81.03;102796.88;5054580;28;20039;-78
2022/07/09 06:26:58;;;;;;;9.25;8.27;;;;;;;17.31;82.38;102789.72;5091028;28;20031;-78
2022/07/09 06:29:23;;;;;;;8.00;7.20;;;;;;;17.33;82.20;102790.53;5074568;28;20036;-78
2022/07/09 06:31:48;;;;;;;6.53;5.93;;;;;;;17.34;81.62;102794.91;5091380;28;20043;-78
2022/07/09 06:34:14;;;;;;;6.38;5.80;;;;;;;17.33;81.84;102796.66;5070682;28;20107;-77
2022/07/09 06:36:41;;;;;;;5.60;5.10;;;;;;;17.35;81.81;102796.63;5072017;28;20027;-78
2022/07/09 06:41:50;;;;;;;5.70;4.93;;;;;;;17.41;82.78;102805.19;5088099;28;20095;-78
2022/07/09 06:44:16;;;;;;;6.78;4.78;;;;;;;17.43;83.12;102807.81;5091465;28;20266;-78
2022/07/09 06:46:41;;;;;;;4.13;3.70;;;;;;;17.44;83.05;102813.03;5075388;28;20054;-78
2022/07/09 06:49:06;;;;;;;3.60;3.30;;;;;;;17.45;83.03;102822.69;5051083;28;20294;-78
2022/07/09 06:51:32;;;;;;;3.97;3.20;;;;;;;17.46;82.99;102821.78;5067808;28;20031;-79
2022/07/09 06:53:58;;;;;;;3.15;2.53;;;;;;;17.48;82.97;102827.00;5067475;28;20035;-79
2022/07/09 06:56:23;;;;;;;4.15;2.50;;;;;;;17.49;82.83;102825.25;5085450;28;20044;-79
2022/07/09 06:58:49;;;;;;;2.95;2.60;;;;;;;17.52;82.60;102825.97;5073146;28;20080;-79
2022/07/09 07:01:14;;;;;;;3.45;2.35;;;;;;;17.53;83.35;102822.41;5069300;28;20388;-78
2022/07/09 07:03:40;;;;;;;2.15;1.92;;;;;;;17.56;83.10;102818.78;5090704;28;20057;-78
2022/07/09 07:06:05;;;;;;;1.90;1.70;;;;;;;17.57;83.31;102828.44;5067232;28;20024;-78
2022/07/09 07:08:30;;;;;;;1.95;1.73;;;;;;;17.58;83.07;102828.38;5089499;28;20020;-79
2022/07/09 07:10:56;;;;;;;2.70;1.70;;;;;;;17.60;82.66;102829.19;5087489;28;20346;-79
2022/07/09 07:13:21;;;;;;;1.30;1.20;;;;;;;17.62;82.42;102829.13;5085003;28;20044;-78
2022/07/09 07:15:49;;;;;;;2.45;1.30;;;;;;;17.62;82.23;102826.47;5067720;28;20332;-79
2022/07/09 07:18:15;;;;;;;2.75;1.30;;;;;;;17.64;82.32;102837.88;5088351;28;20036;-78
2022/07/09 07:20:40;;;;;;;1.17;1.10;;;;;;;17.66;82.12;102838.69;5070431;28;20020;-78
2022/07/09 07:23:06;;;;;;;1.50;1.40;;;;;;;17.69;82.41;102843.00;5089518;28;20390;-78
2022/07/09 07:25:31;;;;;;;1.60;1.10;;;;;;;17.70;82.19;102842.97;5089539;28;20044;-77
2022/07/09 07:27:57;;;;;;;2.25;1.08;;;;;;;17.71;82.43;102838.50;5074888;28;20296;-78
2022/07/09 07:30:22;;;;;;;3.47;0.88;;;;;;;17.71;82.19;102839.38;5093560;28;20051;-78
2022/07/09 07:32:47;;;;;;;1.00;0.88;;;;;;;17.73;81.95;102836.66;5076094;28;20285;-78
2022/07/09 07:35:13;;;;;;;1.30;1.10;;;;;;;17.73;81.90;102832.22;5099630;28;20287;-78
2022/07/09 07:37:38;;;;;;;1.20;1.10;;;;;;;17.72;81.84;102835.81;5082700;28;20036;-77
2022/07/09 07:40:04;;;;;;;1.38;1.05;;;;;;;17.73;81.87;102853.41;5089737;28;20051;-78
2022/07/09 07:42:30;;;;;;;2.90;1.00;;;;;;;17.75;81.48;102848.91;5058983;28;20160;-77
2022/07/09 07:44:55;;;;;;;2.67;1.10;;;;;;;17.75;81.66;102840.97;5094796;28;20366;-78
2022/07/09 07:47:21;;;;;;;2.35;1.10;;;;;;;17.75;81.76;102846.25;5082068;28;20070;-78
2022/07/09 07:49:46;;;;;;;5.88;1.52;;;;;;;17.74;81.41;102839.25;5082254;28;20039;-78
2022/07/09 07:52:12;;;;;;;2.13;1.38;;;;;;;17.74;81.66;102844.56;5075466;28;20375;-78
2022/07/09 07:54:37;;;;;;;2.25;1.20;;;;;;;17.74;81.41;102839.25;5078819;28;20083;-78
2022/07/09 07:57:03;;;;;;;5.07;1.20;;;;;;;17.75;81.32;102842.75;5062226;28;20333;-78
2022/07/09 07:59:28;;;;;;;13.45;1.65;;;;;;;17.76;81.46;102850.66;5099364;28;20035;-79
2022/07/09 08:01:54;;;;;;;5.55;1.40;;;;;;;17.76;81.14;102848.00;5081979;28;20020;-78
2022/07/09 08:04:19;;;;;;;4.20;1.95;;;;;;;17.77;81.14;102851.50;5088521;28;20515;-78
2022/07/09 08:06:44;;;;;;;3.38;1.30;;;;;;;17.78;81.04;102855.91;5081510;28;20252;-78
2022/07/09 08:09:10;;;;;;;7.22;1.27;;;;;;;17.78;80.74;102851.47;5094079;28;20351;-78
2022/07/09 08:11:35;;;;;;;6.13;1.45;;;;;;;17.81;80.86;102847.84;5088870;28;20063;-78
2022/07/09 08:14:01;;;;;;;3.42;1.40;;;;;;;17.81;80.96;102835.44;5090985;28;20333;-78
2022/07/09 08:16:27;;;;;;;4.22;1.08;;;;;;;17.84;80.90;102840.63;5082173;28;20063;-78
2022/07/09 08:18:52;;;;;;;1.02;0.90;;;;;;;17.86;80.74;102845.88;5098635;28;20083;-77
2022/07/09 08:21:17;;;;;;;4.35;1.23;;;;;;;17.86;80.11;102832.63;5072088;28;20040;-78
2022/07/09 08:23:53;;;;;;;3.70;1.20;;;;;;;17.88;80.05;102837.88;5082028;28;20051;-78
2022/07/09 08:26:21;;;;;;;3.13;0.90;;;;;;;17.88;79.56;102840.53;5049104;28;20056;-78
2022/07/09 08:28:46;;;;;;;2.30;1.05;;;;;;;17.89;79.63;102836.97;5095625;28;20031;-78
2022/07/09 08:31:12;;;;;;;3.90;1.17;;;;;;;17.88;79.34;102841.38;5100260;28;20043;-78
2022/07/09 08:33:38;;;;;;;2.58;0.80;;;;;;;17.93;79.38;102841.19;5099831;28;20039;-78
2022/07/09 08:36:03;;;;;;;1.48;1.05;;;;;;;17.94;79.07;102827.03;5048798;28;20039;-78
2022/07/09 08:38:30;;;;;;;3.03;1.20;;;;;;;17.95;78.98;102832.25;5096175;28;20035;-77
2022/07/09 08:40:58;;;;;;;4.20;1.00;;;;;;;17.96;78.91;102833.13;5078219;28;20035;-78
2022/07/09 08:43:23;;;;;;;3.33;1.10;;;;;;;17.99;78.77;102840.94;5078938;28;20043;-78
2022/07/09 08:45:52;;;;;;;1.17;0.80;;;;;;;18.01;78.61;102833.81;5083758;28;20035;-78
2022/07/09 08:48:18;;;;;;;1.95;1.15;;;;;;;18.02;78.90;102841.69;5097495;28;20099;-78
2022/07/09 08:50:44;;;;;;;2.83;0.70;;;;;;;18.05;78.27;102835.41;5096852;28;20293;-78
2022/07/09 08:53:10;;;;;;;3.95;1.20;;;;;;;18.06;77.95;102838.91;5071515;28;20112;-78
2022/07/09 08:55:37;;;;;;;2.55;0.80;;;;;;;18.06;77.74;102829.16;5096752;28;20024;-78
2022/07/09 08:58:02;;;;;;;1.85;0.95;;;;;;;18.08;77.69;102823.81;5082629;28;20032;-78
2022/07/09 09:00:27;;;;;;;3.17;1.05;;;;;;;18.08;77.26;102830.00;5070007;28;20044;-78
2022/07/09 09:02:53;;;;;;;2.88;1.00;;;;;;;18.10;76.90;102824.59;5064999;28;20232;-78
2022/07/09 09:05:19;;;;;;;1.52;0.80;;;;;;;18.12;76.99;102828.06;5092719;28;20048;-78
2022/07/09 09:07:44;;;;;;;5.22;1.25;;;;;;;18.13;77.27;102816.53;5075515;28;20033;-78
2022/07/09 09:10:28;;;;;;;2.33;0.90;;;;;;;18.14;77.34;102820.94;5088545;28;20055;-78
2022/07/09 09:12:58;;;;;;;2.35;0.98;;;;;;;18.15;76.67;102828.78;5095214;28;20040;-78
2022/07/09 09:15:23;;;;;;;2.50;0.60;;;;;;;18.17;75.61;102834.91;5086147;28;20504;-78
2022/07/09 09:17:49;;;;;;;0.85;0.68;;;;;;;18.17;75.50;102832.28;5087550;28;20215;-78
2022/07/09 09:20:16;;;;;;;1.77;0.70;;;;;;;18.16;75.72;102827.88;5096776;28;20060;-77
2022/07/09 09:22:51;;;;;;;2.95;1.00;;;;;;;18.17;75.65;102832.28;5096289;28;20127;-78
2022/07/09 09:25:21;;;;;;;0.93;0.60;;;;;;;18.19;75.37;102837.47;5092047;28;20029;-78
2022/07/09 09:27:54;;;;;;;0.88;0.63;;;;;;;18.21;75.38;102830.34;5095558;28;20311;-78
2022/07/09 09:30:20;;;;;;;1.02;0.50;;;;;;;18.25;75.24;102831.09;5074814;28;20046;-78
2022/07/09 09:33:03;;;;;;;1.25;0.60;;;;;;;18.29;75.15;102845.94;5087371;28;20097;-78
2022/07/09 09:35:32;;;;;;;0.60;0.57;;;;;;;18.31;75.21;102841.44;5089710;28;20429;-79
2022/07/09 09:37:57;;;;;;;;;;;;;;;18.33;74.37;102856.34;5074886;28;20875;-78
2022/07/09 09:40:24;;;;;;;0.88;0.70;;;;;;;18.32;73.98;102846.69;5091723;28;19912;-78
2022/07/09 09:42:49;;;;;;;1.40;0.90;;;;;;;18.35;73.95;102843.03;5077499;28;20047;-78
2022/07/09 09:45:16;;;;;;;0.70;0.63;;;;;;;18.34;72.62;102841.31;5095011;28;20339;-78
2022/07/09 09:47:51;;;;;;;0.68;0.68;;;;;;;18.36;72.91;102836.81;5091869;28;20103;-78
2022/07/09 09:50:22;;;;;;;0.93;0.60;;;;;;;18.36;72.67;102844.75;5088625;28;20040;-78
2022/07/09 09:52:50;;;;;;;0.70;0.63;;;;;;;18.37;72.49;102850.00;5076956;28;20231;-78
2022/07/09 09:55:16;;;;;;;0.70;0.60;;;;;;;18.37;71.86;102838.50;5071973;28;20023;-78
2022/07/09 09:57:42;;;;;;;0.82;0.52;;;;;;;18.37;71.96;102847.34;5091509;28;20044;-78
2022/07/09 10:00:09;;;;;;;1.88;0.70;;;;;;;18.36;71.36;102852.72;5093712;28;20046;-78
2022/07/09 10:02:35;;;;;;;0.63;0.57;;;;;;;18.34;69.53;102847.47;5090990;28;20342;-78
2022/07/09 10:05:01;;;;;;;0.50;0.50;;;;;;;18.34;69.93;102846.63;5094217;28;20095;-79
2022/07/09 10:07:27;;;;;;;0.90;0.68;;;;;;;18.34;70.64;102838.66;5095220;28;20071;-78
2022/07/09 10:10:01;;;;;;;0.75;0.50;;;;;;;18.35;70.92;102845.69;5095063;28;20350;-78
2022/07/09 10:12:28;;;;;;;1.98;0.68;;;;;;;18.35;70.31;102843.88;5089774;28;20231;-78
2022/07/09 10:14:54;;;;;;;2.50;0.60;;;;;;;18.36;70.50;102842.97;5093870;28;20358;-78
2022/07/09 10:17:20;;;;;;;2.72;0.50;;;;;;;18.35;69.61;102845.69;5095465;28;20231;-78
2022/07/09 10:20:03;;;;;;;1.27;0.70;;;;;;;18.37;69.66;102855.31;5095483;28;20238;-78
2022/07/09 10:22:40;;;;;;;0.60;0.60;;;;;;;18.40;69.58;102851.66;5094598;28;20098;-78
2022/07/09 10:25:06;;;;;;;1.27;0.50;;;;;;;18.43;68.54;102859.50;5085206;28;20037;-78
2022/07/09 10:27:46;;;;;;;0.60;0.60;;;;;;;18.45;68.71;102862.09;5056905;28;20048;-78
2022/07/09 10:30:24;;;;;;;0.60;0.60;;;;;;;18.44;68.24;102866.50;5087141;28;20031;-78
2022/07/09 10:33:07;;;;;;;0.98;0.60;;;;;;;18.42;68.13;102861.25;5093846;28;20044;-78
2022/07/09 10:35:52;;;;;;;0.52;0.52;;;;;;;18.45;66.68;102862.94;5077776;28;20043;-78
2022/07/09 10:38:20;;;;;;;0.57;0.50;;;;;;;18.42;66.68;102871.03;5095250;28;20382;-77
2022/07/09 10:41:06;;;;;;;0.80;0.75;;;;;;;18.41;68.56;102866.66;5094301;28;20031;-78
2022/07/09 10:43:40;;;;;;;2.47;0.73;;;;;;;18.41;68.21;102856.03;5075918;28;20073;-78
2022/07/09 10:46:13;;;;;;;0.75;0.75;;;;;;;18.38;67.58;102864.97;5087010;28;20020;-78
2022/07/09 10:48:38;;;;;;;2.05;0.80;;;;;;;18.35;68.33;102862.44;5076419;28;20044;-78
2022/07/09 10:51:04;;;;;;;0.63;0.60;;;;;;;18.37;68.94;102870.34;5059772;28;20039;-78
2022/07/09 10:53:30;;;;;;;1.58;1.00;;;;;;;18.42;69.04;102860.41;5093562;28;20059;-78
2022/07/09 10:55:56;;;;;;;1.27;0.73;;;;;;;18.41;69.47;102864.84;5079304;28;20024;-78
2022/07/09 10:58:24;;;;;;;4.18;0.90;;;;;;;18.44;70.05;102863.00;5091133;28;20032;-78
2022/07/09 11:00:58;;;;;;;2.43;1.10;;;;;;;18.42;70.13;102869.22;5094180;28;20047;-78
2022/07/09 11:03:26;;;;;;;2.17;1.10;;;;;;;18.44;70.91;102871.81;5094598;28;20150;-78
2022/07/09 11:05:52;;;;;;;2.90;0.90;;;;;;;18.41;71.16;102872.81;5093151;28;20092;-78
2022/07/09 11:08:17;;;;;;;1.95;1.00;;;;;;;18.41;71.57;102870.16;5088899;28;20134;-78
2022/07/09 11:10:43;;;;;;;2.45;0.73;;;;;;;18.42;71.71;102892.25;5076226;28;20107;-78
2022/07/09 11:13:09;;;;;;;1.23;0.77;;;;;;;18.44;71.68;102884.22;5093702;28;20273;-78
2022/07/09 11:15:35;;;;;;;1.58;0.93;;;;;;;18.44;70.69;102890.38;5072266;28;20019;-78
2022/07/09 11:18:06;;;;;;;5.22;0.90;;;;;;;18.44;70.64;102893.03;5072173;28;20389;-78